createdAt,value
2022-08-24T00:00:01.936Z,1018.21
2022-08-24T00:01:06.327Z,1018.20
2022-08-24T00:02:11.933Z,1018.20
2022-08-24T00:03:15.286Z,1018.18
2022-08-24T00:04:19.482Z,1018.22
2022-08-24T00:05:23.883Z,1018.22
2022-08-24T00:06:28.261Z,1018.21
2022-08-24T00:07:32.641Z,1018.23
2022-08-24T00:08:37.007Z,1018.23
2022-08-24T00:09:41.415Z,1018.23
2022-08-24T00:10:45.798Z,1018.22
2022-08-24T00:11:50.181Z,1018.24
2022-08-24T00:12:54.590Z,1018.23
2022-08-24T00:13:58.966Z,1018.22
2022-08-24T00:15:03.336Z,1018.22
2022-08-24T00:16:07.816Z,1018.22
2022-08-24T00:17:12.074Z,1018.23
2022-08-24T00:18:16.476Z,1018.22
2022-08-24T00:19:20.882Z,1018.23
2022-08-24T00:20:25.236Z,1018.22
2022-08-24T00:21:29.645Z,1018.24
2022-08-24T00:22:34.119Z,1018.23
2022-08-24T00:23:38.432Z,1018.24
2022-08-24T00:24:42.799Z,1018.23
2022-08-24T00:25:47.162Z,1018.22
2022-08-24T00:26:51.528Z,1018.22
2022-08-24T00:27:56.027Z,1018.21
2022-08-24T00:29:04.183Z,1018.20
2022-08-24T00:30:04.746Z,1018.19
2022-08-24T00:31:09.176Z,1018.20
2022-08-24T00:32:13.547Z,1018.19
2022-08-24T00:33:17.921Z,1018.20
2022-08-24T00:34:22.361Z,1018.21
2022-08-24T00:35:26.755Z,1018.21
2022-08-24T00:36:31.151Z,1018.21
2022-08-24T00:37:35.542Z,1018.20
2022-08-24T00:38:39.930Z,1018.20
2022-08-24T00:39:44.403Z,1018.20
2022-08-24T00:40:48.707Z,1018.22
2022-08-24T00:41:53.097Z,1018.21
2022-08-24T00:42:57.462Z,1018.22
2022-08-24T00:44:01.849Z,1018.21
2022-08-24T00:45:06.229Z,1018.19
2022-08-24T00:46:10.752Z,1018.19
2022-08-24T00:47:15.026Z,1018.19
2022-08-24T00:48:19.456Z,1018.17
2022-08-24T00:49:23.850Z,1018.12
2022-08-24T00:50:28.200Z,1018.12
2022-08-24T00:51:32.667Z,1018.14
2022-08-24T00:52:36.991Z,1018.17
2022-08-24T00:53:41.410Z,1018.18
2022-08-24T00:54:46.671Z,1018.20
2022-08-24T00:55:50.210Z,1018.19
2022-08-24T00:56:54.607Z,1018.19
2022-08-24T00:57:59.013Z,1018.20
2022-08-24T00:59:03.336Z,1018.19
2022-08-24T01:00:07.761Z,1018.19
2022-08-24T01:01:12.213Z,1018.20
2022-08-24T01:02:16.569Z,1018.22
2022-08-24T01:03:20.887Z,1018.21
2022-08-24T01:04:25.244Z,1018.22
2022-08-24T01:05:29.634Z,1018.22
2022-08-24T01:06:34.145Z,1018.23
2022-08-24T01:07:38.495Z,1018.25
2022-08-24T01:08:42.885Z,1018.23
2022-08-24T01:09:47.277Z,1018.24
2022-08-24T01:10:51.644Z,1018.24
2022-08-24T01:11:56.033Z,1018.24
2022-08-24T01:13:01.418Z,1018.26
2022-08-24T01:14:04.738Z,1018.25
2022-08-24T01:15:09.115Z,1018.25
2022-08-24T01:16:13.666Z,1018.27
2022-08-24T01:17:17.897Z,1018.28
2022-08-24T01:18:22.299Z,1018.26
2022-08-24T01:19:26.650Z,1018.25
2022-08-24T01:20:31.021Z,1018.26
2022-08-24T01:21:35.393Z,1018.27
2022-08-24T01:22:39.761Z,1018.26
2022-08-24T01:23:44.234Z,1018.25
2022-08-24T01:24:48.594Z,1018.26
2022-08-24T01:25:53.034Z,1018.25
2022-08-24T01:26:57.452Z,1018.23
2022-08-24T01:28:01.960Z,1018.24
2022-08-24T01:29:06.132Z,1018.22
2022-08-24T01:30:10.524Z,1018.20
2022-08-24T01:31:14.930Z,1018.18
2022-08-24T01:32:19.295Z,1018.16
2022-08-24T01:33:23.682Z,1018.17
2022-08-24T01:34:28.035Z,1018.17
2022-08-24T01:35:32.402Z,1018.17
2022-08-24T01:36:36.779Z,1018.15
2022-08-24T01:37:41.172Z,1018.16
2022-08-24T01:38:45.654Z,1018.16
2022-08-24T01:39:50.070Z,1018.16
2022-08-24T01:40:54.342Z,1018.15
2022-08-24T01:41:58.763Z,1018.15
2022-08-24T01:43:03.158Z,1018.15
2022-08-24T01:44:07.586Z,1018.15
2022-08-24T01:45:11.981Z,1018.15
2022-08-24T01:46:16.418Z,1018.14
2022-08-24T01:47:20.705Z,1018.14
2022-08-24T01:48:25.022Z,1018.12
2022-08-24T01:49:29.403Z,1018.11
2022-08-24T01:50:33.752Z,1018.13
2022-08-24T01:51:38.120Z,1018.12
2022-08-24T01:53:03.913Z,1018.14
2022-08-24T01:53:46.866Z,1018.16
2022-08-24T01:54:51.247Z,1018.17
2022-08-24T01:55:55.616Z,1018.18
2022-08-24T01:57:00.011Z,1018.19
2022-08-24T01:58:04.459Z,1018.19
2022-08-24T01:59:08.780Z,1018.17
2022-08-24T02:00:13.165Z,1018.16
2022-08-24T02:01:17.542Z,1018.13
2022-08-24T02:02:21.940Z,1018.14
2022-08-24T02:03:28.716Z,1018.13
2022-08-24T02:04:30.643Z,1018.13
2022-08-24T02:05:35.058Z,1018.14
2022-08-24T02:06:39.424Z,1018.16
2022-08-24T02:07:43.795Z,1018.15
2022-08-24T02:08:48.199Z,1018.18
2022-08-24T02:09:52.608Z,1018.18
2022-08-24T02:10:57.218Z,1018.18
2022-08-24T02:12:01.385Z,1018.18
2022-08-24T02:13:05.888Z,1018.17
2022-08-24T02:14:10.126Z,1018.18
2022-08-24T02:15:14.468Z,1018.18
2022-08-24T02:16:18.958Z,1018.18
2022-08-24T02:17:23.207Z,1018.21
2022-08-24T02:18:27.582Z,1018.20
2022-08-24T02:19:32.050Z,1018.21
2022-08-24T02:20:36.393Z,1018.20
2022-08-24T02:21:40.758Z,1018.17
2022-08-24T02:22:45.117Z,1018.21
2022-08-24T02:23:49.472Z,1018.22
2022-08-24T02:24:53.836Z,1018.23
2022-08-24T02:25:58.197Z,1018.26
2022-08-24T02:27:02.587Z,1018.28
2022-08-24T02:28:06.973Z,1018.27
2022-08-24T02:29:11.341Z,1018.28
2022-08-24T02:30:15.724Z,1018.30
2022-08-24T02:31:20.213Z,1018.34
2022-08-24T02:32:24.497Z,1018.34
2022-08-24T02:33:28.868Z,1018.33
2022-08-24T02:34:33.230Z,1018.34
2022-08-24T02:35:37.589Z,1018.34
2022-08-24T02:36:41.971Z,1018.37
2022-08-24T02:37:46.361Z,1018.39
2022-08-24T02:38:50.726Z,1018.36
2022-08-24T02:39:55.166Z,1018.37
2022-08-24T02:40:59.453Z,1018.40
2022-08-24T02:42:03.821Z,1018.40
2022-08-24T02:43:08.223Z,1018.41
2022-08-24T02:44:12.589Z,1018.37
2022-08-24T02:45:16.948Z,1018.38
2022-08-24T02:46:21.420Z,1018.39
2022-08-24T02:47:38.851Z,1018.41
2022-08-24T02:48:30.131Z,1018.41
2022-08-24T02:49:34.506Z,1018.42
2022-08-24T02:50:38.858Z,1018.43
2022-08-24T02:51:44.651Z,1018.42
2022-08-24T02:52:47.640Z,1018.41
2022-08-24T02:53:52.028Z,1018.40
2022-08-24T02:54:56.380Z,1018.38
2022-08-24T02:56:00.762Z,1018.40
2022-08-24T02:57:05.126Z,1018.36
2022-08-24T02:58:09.492Z,1018.36
2022-08-24T02:59:13.863Z,1018.35
2022-08-24T03:00:18.186Z,1018.36
2022-08-24T03:01:24.193Z,1018.35
2022-08-24T03:02:27.067Z,1018.36
2022-08-24T03:03:31.352Z,1018.36
2022-08-24T03:04:35.739Z,1018.36
2022-08-24T03:05:40.118Z,1018.38
2022-08-24T03:06:44.471Z,1018.37
2022-08-24T03:07:48.840Z,1018.37
2022-08-24T03:08:56.253Z,1018.37
2022-08-24T03:09:57.545Z,1018.35
2022-08-24T03:11:01.940Z,1018.38
2022-08-24T03:12:06.408Z,1018.39
2022-08-24T03:13:10.703Z,1018.40
2022-08-24T03:14:15.114Z,1018.41
2022-08-24T03:15:19.503Z,1018.40
2022-08-24T03:16:23.867Z,1018.41
2022-08-24T03:17:28.240Z,1018.39
2022-08-24T03:18:32.738Z,1018.39
2022-08-24T03:19:37.071Z,1018.40
2022-08-24T03:20:41.428Z,1018.38
2022-08-24T03:21:45.810Z,1018.37
2022-08-24T03:22:50.280Z,1018.37
2022-08-24T03:23:54.573Z,1018.35
2022-08-24T03:24:58.932Z,1018.37
2022-08-24T03:26:03.286Z,1018.36
2022-08-24T03:27:08.274Z,1018.37
2022-08-24T03:28:12.036Z,1018.38
2022-08-24T03:29:16.419Z,1018.38
2022-08-24T03:30:20.803Z,1018.38
2022-08-24T03:31:25.135Z,1018.35
2022-08-24T03:32:29.518Z,1018.33
2022-08-24T03:33:33.890Z,1018.35
2022-08-24T03:34:38.260Z,1018.36
2022-08-24T03:35:42.651Z,1018.38
2022-08-24T03:36:47.030Z,1018.38
2022-08-24T03:37:51.419Z,1018.40
2022-08-24T03:38:55.808Z,1018.44
2022-08-24T03:40:00.312Z,1018.44
2022-08-24T03:41:04.541Z,1018.43
2022-08-24T03:42:08.929Z,1018.44
2022-08-24T03:43:13.173Z,1018.44
2022-08-24T03:44:21.272Z,1018.48
2022-08-24T03:45:21.982Z,1018.45
2022-08-24T03:46:26.349Z,1018.47
2022-08-24T03:47:30.744Z,1018.47
2022-08-24T03:48:35.093Z,1018.46
2022-08-24T03:49:39.491Z,1018.48
2022-08-24T03:50:43.835Z,1018.48
2022-08-24T03:51:48.212Z,1018.51
2022-08-24T03:52:52.619Z,1018.51
2022-08-24T03:53:56.980Z,1018.52
2022-08-24T03:55:01.368Z,1018.56
2022-08-24T03:56:06.975Z,1018.56
2022-08-24T03:57:10.056Z,1018.53
2022-08-24T03:58:14.439Z,1018.55
2022-08-24T03:59:20.114Z,1018.54
2022-08-24T04:00:26.064Z,1018.53
2022-08-24T04:01:29.518Z,1018.53
2022-08-24T04:02:33.855Z,1018.54
2022-08-24T04:03:38.101Z,1018.54
2022-08-24T04:04:42.506Z,1018.55
2022-08-24T04:05:46.884Z,1018.57
2022-08-24T04:06:51.216Z,1018.58
2022-08-24T04:07:55.476Z,1018.58
2022-08-24T04:08:59.836Z,1018.59
2022-08-24T04:10:04.263Z,1018.60
2022-08-24T04:11:08.603Z,1018.61
2022-08-24T04:12:13.098Z,1018.61
2022-08-24T04:13:17.475Z,1018.62
2022-08-24T04:14:27.529Z,1018.61
2022-08-24T04:15:26.116Z,1018.61
2022-08-24T04:16:30.477Z,1018.61
2022-08-24T04:17:34.846Z,1018.63
2022-08-24T04:18:39.210Z,1018.65
2022-08-24T04:19:43.558Z,1018.66
2022-08-24T04:20:47.925Z,1018.67
2022-08-24T04:21:52.316Z,1018.70
2022-08-24T04:22:56.664Z,1018.72
2022-08-24T04:24:01.035Z,1018.74
2022-08-24T04:25:09.038Z,1018.75
2022-08-24T04:26:09.765Z,1018.76
2022-08-24T04:27:14.064Z,1018.76
2022-08-24T04:28:18.495Z,1018.77
2022-08-24T04:29:22.883Z,1018.76
2022-08-24T04:30:27.197Z,1018.77
2022-08-24T04:31:31.581Z,1018.79
2022-08-24T04:32:35.977Z,1018.78
2022-08-24T04:33:40.265Z,1018.77
2022-08-24T04:34:44.686Z,1018.77
2022-08-24T04:35:49.082Z,1018.77
2022-08-24T04:36:53.453Z,1018.79
2022-08-24T04:37:57.861Z,1018.81
2022-08-24T04:39:02.338Z,1018.80
2022-08-24T04:40:06.598Z,1018.81
2022-08-24T04:41:13.482Z,1018.83
2022-08-24T04:42:15.281Z,1018.82
2022-08-24T04:43:19.685Z,1018.81
2022-08-24T04:44:23.974Z,1018.83
2022-08-24T04:45:28.410Z,1018.83
2022-08-24T04:46:32.741Z,1018.85
2022-08-24T04:47:37.069Z,1018.86
2022-08-24T04:48:41.558Z,1018.88
2022-08-24T04:49:45.774Z,1018.89
2022-08-24T04:50:50.198Z,1018.87
2022-08-24T04:51:54.540Z,1018.88
2022-08-24T04:52:59.066Z,1018.88
2022-08-24T04:54:03.290Z,1018.89
2022-08-24T04:55:07.788Z,1018.88
2022-08-24T04:56:12.177Z,1018.89
2022-08-24T04:57:18.355Z,1018.90
2022-08-24T04:58:20.746Z,1018.90
2022-08-24T04:59:25.246Z,1018.90
2022-08-24T05:00:29.711Z,1018.92
2022-08-24T05:01:33.991Z,1018.91
2022-08-24T05:02:41.859Z,1018.90
2022-08-24T05:03:42.729Z,1018.91
2022-08-24T05:04:47.142Z,1018.92
2022-08-24T05:05:51.492Z,1018.93
2022-08-24T05:06:55.864Z,1018.92
2022-08-24T05:08:00.173Z,1018.93
2022-08-24T05:09:04.674Z,1018.96
2022-08-24T05:10:09.120Z,1018.98
2022-08-24T05:11:13.346Z,1019.00
2022-08-24T05:12:17.734Z,1019.02
2022-08-24T05:13:22.114Z,1019.03
2022-08-24T05:14:28.867Z,1019.04
2022-08-24T05:15:30.998Z,1019.05
2022-08-24T05:16:35.469Z,1019.05
2022-08-24T05:17:39.753Z,1019.04
2022-08-24T05:18:44.131Z,1019.06
2022-08-24T05:19:48.514Z,1019.06
2022-08-24T05:20:52.911Z,1019.07
2022-08-24T05:21:57.288Z,1019.08
2022-08-24T05:23:04.549Z,1019.09
2022-08-24T05:24:05.961Z,1019.10
2022-08-24T05:25:10.396Z,1019.08
2022-08-24T05:26:14.771Z,1019.09
2022-08-24T05:27:19.175Z,1019.08
2022-08-24T05:28:23.423Z,1019.09
2022-08-24T05:29:27.863Z,1019.10
2022-08-24T05:30:32.236Z,1019.12
2022-08-24T05:31:36.560Z,1019.11
2022-08-24T05:32:40.816Z,1019.14
2022-08-24T05:33:45.176Z,1019.17
2022-08-24T05:34:49.604Z,1019.17
2022-08-24T05:35:53.872Z,1019.17
2022-08-24T05:36:58.305Z,1019.18
2022-08-24T05:38:02.710Z,1019.18
2022-08-24T05:39:11.134Z,1019.18
2022-08-24T05:40:11.620Z,1019.15
2022-08-24T05:41:15.864Z,1019.16
2022-08-24T05:42:20.248Z,1019.18
2022-08-24T05:43:24.627Z,1019.16
2022-08-24T05:44:30.961Z,1019.13
2022-08-24T05:45:33.358Z,1019.14
2022-08-24T05:46:37.823Z,1019.14
2022-08-24T05:47:42.142Z,1019.14
2022-08-24T05:48:53.001Z,1019.13
2022-08-24T05:49:50.821Z,1019.13
2022-08-24T05:50:55.176Z,1019.12
2022-08-24T05:51:59.598Z,1019.13
2022-08-24T05:53:04.144Z,1019.12
2022-08-24T05:54:08.301Z,1019.13
2022-08-24T05:55:12.792Z,1019.14
2022-08-24T05:56:17.137Z,1019.13
2022-08-24T05:57:21.578Z,1019.14
2022-08-24T05:58:30.954Z,1019.17
2022-08-24T05:59:30.379Z,1019.17
2022-08-24T06:00:34.769Z,1019.19
2022-08-24T06:01:43.350Z,1019.15
2022-08-24T06:02:43.793Z,1019.13
2022-08-24T06:03:48.090Z,1019.14
2022-08-24T06:04:52.472Z,1019.15
2022-08-24T06:05:56.921Z,1019.14
2022-08-24T06:07:01.331Z,1019.14
2022-08-24T06:08:05.755Z,1019.13
2022-08-24T06:09:10.174Z,1019.16
2022-08-24T06:10:35.464Z,1019.16
2022-08-24T06:11:19.027Z,1019.13
2022-08-24T06:12:23.419Z,1019.15
2022-08-24T06:13:27.815Z,1019.17
2022-08-24T06:14:32.117Z,1019.17
2022-08-24T06:15:36.500Z,1019.14
2022-08-24T06:16:40.998Z,1019.17
2022-08-24T06:17:45.460Z,1019.18
2022-08-24T06:18:49.808Z,1019.20
2022-08-24T06:19:54.118Z,1019.22
2022-08-24T06:20:58.497Z,1019.24
2022-08-24T06:22:02.963Z,1019.24
2022-08-24T06:23:07.381Z,1019.22
2022-08-24T06:24:11.809Z,1019.25
2022-08-24T06:25:16.170Z,1019.24
2022-08-24T06:26:23.267Z,1019.27
2022-08-24T06:27:25.062Z,1019.27
2022-08-24T06:28:29.498Z,1019.30
2022-08-24T06:29:33.912Z,1019.32
2022-08-24T06:30:38.362Z,1019.37
2022-08-24T06:31:42.866Z,1019.35
2022-08-24T06:32:50.197Z,1019.35
2022-08-24T06:33:53.817Z,1019.37
2022-08-24T06:34:58.245Z,1019.37
2022-08-24T06:36:02.589Z,1019.38
2022-08-24T06:37:07.051Z,1019.36
2022-08-24T06:38:11.501Z,1019.35
2022-08-24T06:39:15.952Z,1019.35
2022-08-24T06:40:20.561Z,1019.34
2022-08-24T06:41:24.790Z,1019.36
2022-08-24T06:42:29.220Z,1019.36
2022-08-24T06:43:33.584Z,1019.36
2022-08-24T06:44:38.026Z,1019.36
2022-08-24T06:45:43.864Z,1019.36
2022-08-24T06:46:46.964Z,1019.38
2022-08-24T06:47:51.269Z,1019.38
2022-08-24T06:48:55.638Z,1019.38
2022-08-24T06:49:59.986Z,1019.37
2022-08-24T06:51:04.330Z,1019.37
2022-08-24T06:52:08.799Z,1019.37
2022-08-24T06:53:13.253Z,1019.38
2022-08-24T06:54:17.675Z,1019.41
2022-08-24T06:55:22.038Z,1019.42
2022-08-24T06:56:26.552Z,1019.42
2022-08-24T06:57:30.956Z,1019.41
2022-08-24T06:58:35.386Z,1019.43
2022-08-24T06:59:39.826Z,1019.43
2022-08-24T07:00:44.265Z,1019.44
2022-08-24T07:01:48.745Z,1019.45
2022-08-24T07:02:53.239Z,1019.45
2022-08-24T07:03:57.576Z,1019.43
2022-08-24T07:05:01.959Z,1019.45
2022-08-24T07:06:06.397Z,1019.47
2022-08-24T07:07:10.834Z,1019.45
2022-08-24T07:08:15.284Z,1019.47
2022-08-24T07:09:19.720Z,1019.47
2022-08-24T07:10:24.162Z,1019.49
2022-08-24T07:11:28.489Z,1019.48
2022-08-24T07:12:32.946Z,1019.47
2022-08-24T07:13:37.320Z,1019.48
2022-08-24T07:14:41.708Z,1019.50
2022-08-24T07:15:46.269Z,1019.49
2022-08-24T07:16:50.581Z,1019.50
2022-08-24T07:17:55.049Z,1019.49
2022-08-24T07:18:59.589Z,1019.50
2022-08-24T07:20:03.896Z,1019.50
2022-08-24T07:21:08.436Z,1019.50
2022-08-24T07:22:12.851Z,1019.50
2022-08-24T07:23:20.285Z,1019.51
2022-08-24T07:24:23.832Z,1019.47
2022-08-24T07:25:28.262Z,1019.45
2022-08-24T07:26:32.728Z,1019.48
2022-08-24T07:27:37.272Z,1019.48
2022-08-24T07:28:41.663Z,1019.50
2022-08-24T07:29:56.229Z,1019.51
2022-08-24T07:30:50.634Z,1019.52
2022-08-24T07:31:55.011Z,1019.51
2022-08-24T07:32:59.441Z,1019.55
2022-08-24T07:34:03.897Z,1019.54
2022-08-24T07:35:08.328Z,1019.55
2022-08-24T07:36:12.894Z,1019.54
2022-08-24T07:37:17.258Z,1019.54
2022-08-24T07:38:21.800Z,1019.55
2022-08-24T07:39:26.169Z,1019.55
2022-08-24T07:40:30.703Z,1019.56
2022-08-24T07:41:51.280Z,1019.57
2022-08-24T07:42:39.518Z,1019.58
2022-08-24T07:43:43.948Z,1019.58
2022-08-24T07:44:48.253Z,1019.58
2022-08-24T07:45:52.670Z,1019.59
2022-08-24T07:46:57.153Z,1019.57
2022-08-24T07:49:12.423Z,1019.60
2022-08-24T07:50:10.400Z,1019.59
2022-08-24T07:51:14.872Z,1019.60
2022-08-24T07:52:19.250Z,1019.60
2022-08-24T07:53:27.881Z,1019.60
2022-08-24T07:54:28.151Z,1019.63
2022-08-24T07:55:32.633Z,1019.63
2022-08-24T07:56:37.009Z,1019.63
2022-08-24T07:57:41.496Z,1019.64
2022-08-24T07:58:45.942Z,1019.62
2022-08-24T07:59:50.368Z,1019.63
2022-08-24T08:00:54.841Z,1019.60
2022-08-24T08:01:59.363Z,1019.61
2022-08-24T08:03:04.085Z,1019.61
2022-08-24T08:04:08.110Z,1019.59
2022-08-24T08:05:12.558Z,1019.61
2022-08-24T08:06:16.964Z,1019.61
2022-08-24T08:07:21.503Z,1019.62
2022-08-24T08:08:25.817Z,1019.60
2022-08-24T08:09:30.295Z,1019.58
2022-08-24T08:10:34.748Z,1019.56
2022-08-24T08:11:39.181Z,1019.55
2022-08-24T08:12:46.629Z,1019.56
2022-08-24T08:13:50.219Z,1019.53
2022-08-24T08:14:54.658Z,1019.55
2022-08-24T08:16:00.120Z,1019.57
2022-08-24T08:17:03.543Z,1019.55
2022-08-24T08:18:08.283Z,1019.51
2022-08-24T08:19:12.360Z,1019.52
2022-08-24T08:20:17.557Z,1019.50
2022-08-24T08:21:21.290Z,1019.50
2022-08-24T08:22:25.775Z,1019.52
2022-08-24T08:23:30.240Z,1019.52
2022-08-24T08:24:34.705Z,1019.51
2022-08-24T08:25:39.186Z,1019.55
2022-08-24T08:26:43.548Z,1019.56
2022-08-24T08:27:48.050Z,1019.51
2022-08-24T08:28:52.398Z,1019.52
2022-08-24T08:29:56.807Z,1019.51
2022-08-24T08:31:01.356Z,1019.53
2022-08-24T08:32:05.767Z,1019.55
2022-08-24T08:33:10.234Z,1019.57
2022-08-24T08:34:14.606Z,1019.58
2022-08-24T08:35:19.091Z,1019.58
2022-08-24T08:36:23.547Z,1019.58
2022-08-24T08:37:28.110Z,1019.59
2022-08-24T08:38:32.501Z,1019.58
2022-08-24T08:39:36.939Z,1019.56
2022-08-24T08:40:41.509Z,1019.59
2022-08-24T08:41:46.026Z,1019.57
2022-08-24T08:42:50.403Z,1019.53
2022-08-24T08:43:54.844Z,1019.50
2022-08-24T08:44:59.324Z,1019.48
2022-08-24T08:46:03.960Z,1019.49
2022-08-24T08:47:08.362Z,1019.46
2022-08-24T08:48:12.646Z,1019.48
2022-08-24T08:49:17.153Z,1019.47
2022-08-24T08:50:21.576Z,1019.47
2022-08-24T08:51:26.023Z,1019.47
2022-08-24T08:52:30.410Z,1019.49
2022-08-24T08:53:34.815Z,1019.47
2022-08-24T08:54:39.206Z,1019.49
2022-08-24T08:55:43.715Z,1019.48
2022-08-24T08:56:48.178Z,1019.51
2022-08-24T08:57:52.647Z,1019.51
2022-08-24T08:58:59.262Z,1019.51
2022-08-24T09:00:01.568Z,1019.52
2022-08-24T09:01:06.126Z,1019.54
2022-08-24T09:02:10.639Z,1019.57
2022-08-24T09:03:15.011Z,1019.56
2022-08-24T09:04:21.311Z,1019.54
2022-08-24T09:05:23.872Z,1019.54
2022-08-24T09:06:28.376Z,1019.52
2022-08-24T09:07:32.756Z,1019.51
2022-08-24T09:08:37.202Z,1019.48
2022-08-24T09:09:41.711Z,1019.47
2022-08-24T09:10:46.154Z,1019.42
2022-08-24T09:11:50.618Z,1019.42
2022-08-24T09:12:55.102Z,1019.43
2022-08-24T09:13:59.583Z,1019.41
2022-08-24T09:15:04.022Z,1019.43
2022-08-24T09:16:10.884Z,1019.44
2022-08-24T09:17:13.426Z,1019.42
2022-08-24T09:18:17.386Z,1019.42
2022-08-24T09:19:21.867Z,1019.41
2022-08-24T09:20:26.245Z,1019.42
2022-08-24T09:21:30.801Z,1019.42
2022-08-24T09:22:35.250Z,1019.38
2022-08-24T09:23:39.719Z,1019.36
2022-08-24T09:24:44.212Z,1019.39
2022-08-24T09:25:48.661Z,1019.35
2022-08-24T09:26:53.125Z,1019.38
2022-08-24T09:27:57.542Z,1019.37
2022-08-24T09:29:01.938Z,1019.36
2022-08-24T09:30:06.436Z,1019.37
2022-08-24T09:31:11.036Z,1019.39
2022-08-24T09:32:18.038Z,1019.35
2022-08-24T09:33:19.794Z,1019.33
2022-08-24T09:34:24.271Z,1019.34
2022-08-24T09:35:28.651Z,1019.35
2022-08-24T09:36:33.159Z,1019.38
2022-08-24T09:37:41.595Z,1019.41
2022-08-24T09:38:42.116Z,1019.38
2022-08-24T09:39:46.580Z,1019.38
2022-08-24T09:40:50.894Z,1019.37
2022-08-24T09:41:55.418Z,1019.37
2022-08-24T09:42:59.935Z,1019.35
2022-08-24T09:44:04.342Z,1019.35
2022-08-24T09:45:08.777Z,1019.35
2022-08-24T09:46:13.310Z,1019.36
2022-08-24T09:47:17.665Z,1019.35
2022-08-24T09:48:22.171Z,1019.33
2022-08-24T09:49:26.663Z,1019.31
2022-08-24T09:50:31.129Z,1019.28
2022-08-24T09:51:35.605Z,1019.30
2022-08-24T09:52:40.063Z,1019.24
2022-08-24T09:53:44.605Z,1019.21
2022-08-24T09:54:54.997Z,1019.24
2022-08-24T09:55:58.173Z,1019.19
2022-08-24T09:57:12.186Z,1019.20
2022-08-24T09:58:07.022Z,1019.20
2022-08-24T09:59:11.490Z,1019.19
2022-08-24T10:00:16.022Z,1019.19
2022-08-24T10:01:20.500Z,1019.17
2022-08-24T10:02:24.869Z,1019.17
2022-08-24T10:03:34.992Z,1019.18
2022-08-24T10:04:33.955Z,1019.15
2022-08-24T10:05:38.496Z,1019.18
2022-08-24T10:06:42.701Z,1019.17
2022-08-24T10:07:47.142Z,1019.18
2022-08-24T10:08:51.629Z,1019.19
2022-08-24T10:09:56.016Z,1019.17
2022-08-24T10:11:00.460Z,1019.18
2022-08-24T10:12:04.882Z,1019.17
2022-08-24T10:13:09.353Z,1019.17
2022-08-24T10:14:13.822Z,1019.18
2022-08-24T10:15:18.266Z,1019.17
2022-08-24T10:16:22.751Z,1019.16
2022-08-24T10:17:27.197Z,1019.17
2022-08-24T10:18:35.153Z,1019.17
2022-08-24T10:19:36.138Z,1019.20
2022-08-24T10:20:40.483Z,1019.20
2022-08-24T10:21:44.977Z,1019.20
2022-08-24T10:22:49.327Z,1019.19
2022-08-24T10:23:53.851Z,1019.21
2022-08-24T10:24:58.313Z,1019.19
2022-08-24T10:26:02.803Z,1019.18
2022-08-24T10:27:07.301Z,1019.17
2022-08-24T10:28:11.755Z,1019.18
2022-08-24T10:29:16.217Z,1019.13
2022-08-24T10:30:23.640Z,1019.11
2022-08-24T10:31:25.122Z,1019.08
2022-08-24T10:32:29.589Z,1019.07
2022-08-24T10:33:34.161Z,1019.06
2022-08-24T10:34:38.592Z,1019.05
2022-08-24T10:35:43.087Z,1019.08
2022-08-24T10:36:47.499Z,1019.07
2022-08-24T10:37:51.988Z,1019.10
2022-08-24T10:38:56.502Z,1019.09
2022-08-24T10:40:02.851Z,1019.10
2022-08-24T10:41:05.712Z,1019.10
2022-08-24T10:42:10.563Z,1019.11
2022-08-24T10:43:14.459Z,1019.14
2022-08-24T10:44:18.917Z,1019.12
2022-08-24T10:45:23.447Z,1019.15
2022-08-24T10:46:27.885Z,1019.15
2022-08-24T10:47:32.271Z,1019.15
2022-08-24T10:48:36.775Z,1019.12
2022-08-24T10:49:41.260Z,1019.16
2022-08-24T10:50:45.787Z,1019.11
2022-08-24T10:51:50.237Z,1019.11
2022-08-24T10:52:54.722Z,1019.13
2022-08-24T10:53:59.145Z,1019.12
2022-08-24T10:55:03.520Z,1019.10
2022-08-24T10:56:07.978Z,1019.09
2022-08-24T10:57:12.557Z,1019.06
2022-08-24T10:58:16.956Z,1019.09
2022-08-24T10:59:21.445Z,1019.06
2022-08-24T11:00:25.915Z,1019.06
2022-08-24T11:01:36.484Z,1019.09
2022-08-24T11:02:39.643Z,1019.07
2022-08-24T11:03:43.966Z,1019.06
2022-08-24T11:04:48.430Z,1019.04
2022-08-24T11:05:52.889Z,1019.02
2022-08-24T11:06:57.360Z,1019.02
2022-08-24T11:08:07.864Z,1019.03
2022-08-24T11:09:12.317Z,1019.02
2022-08-24T11:10:15.415Z,1019.02
2022-08-24T11:11:19.769Z,1019.01
2022-08-24T11:12:24.290Z,1019.02
2022-08-24T11:13:28.765Z,1019.03
2022-08-24T11:14:33.267Z,1019.03
2022-08-24T11:15:37.731Z,1019.01
2022-08-24T11:16:42.286Z,1019.01
2022-08-24T11:17:46.643Z,1019.00
2022-08-24T11:18:51.146Z,1019.04
2022-08-24T11:19:55.603Z,1019.06
2022-08-24T11:21:00.164Z,1019.07
2022-08-24T11:22:04.587Z,1019.09
2022-08-24T11:23:09.081Z,1019.08
2022-08-24T11:24:13.504Z,1019.08
2022-08-24T11:25:17.977Z,1019.09
2022-08-24T11:26:22.491Z,1019.07
2022-08-24T11:27:26.964Z,1019.07
2022-08-24T11:28:31.380Z,1019.03
2022-08-24T11:29:35.880Z,1019.04
2022-08-24T11:30:40.339Z,1019.05
2022-08-24T11:31:44.891Z,1019.05
2022-08-24T11:32:49.296Z,1019.05
2022-08-24T11:33:53.802Z,1019.04
2022-08-24T11:34:58.211Z,1019.04
2022-08-24T11:36:02.672Z,1019.02
2022-08-24T11:37:07.193Z,1019.02
2022-08-24T11:38:11.637Z,1019.01
2022-08-24T11:39:16.082Z,1018.98
2022-08-24T11:40:20.615Z,1019.00
2022-08-24T11:41:24.986Z,1018.97
2022-08-24T11:42:29.873Z,1018.98
2022-08-24T11:43:33.894Z,1019.00
2022-08-24T11:44:44.403Z,1018.96
2022-08-24T11:45:47.449Z,1018.96
2022-08-24T11:46:51.946Z,1018.94
2022-08-24T11:47:56.388Z,1018.92
2022-08-24T11:49:00.854Z,1018.89
2022-08-24T11:50:05.334Z,1018.89
2022-08-24T11:51:09.696Z,1018.86
2022-08-24T11:52:14.206Z,1018.80
2022-08-24T11:53:18.733Z,1018.81
2022-08-24T11:54:23.210Z,1018.77
2022-08-24T11:55:27.686Z,1018.78
2022-08-24T11:56:32.175Z,1018.76
2022-08-24T11:57:36.716Z,1018.76
2022-08-24T11:58:41.251Z,1018.77
2022-08-24T11:59:45.689Z,1018.79
2022-08-24T12:00:50.192Z,1018.73
2022-08-24T12:01:54.870Z,1018.76
2022-08-24T12:02:59.355Z,1018.75
2022-08-24T12:04:03.642Z,1018.74
2022-08-24T12:05:08.138Z,1018.71
2022-08-24T12:06:12.647Z,1018.64
2022-08-24T12:07:17.103Z,1018.63
2022-08-24T12:08:21.637Z,1018.61
2022-08-24T12:09:26.092Z,1018.63
2022-08-24T12:10:32.780Z,1018.64
2022-08-24T12:11:35.218Z,1018.64
2022-08-24T12:12:39.664Z,1018.62
2022-08-24T12:13:44.058Z,1018.58
2022-08-24T12:14:48.564Z,1018.57
2022-08-24T12:15:53.029Z,1018.57
2022-08-24T12:16:57.516Z,1018.55
2022-08-24T12:18:02.115Z,1018.61
2022-08-24T12:19:06.402Z,1018.56
2022-08-24T12:20:10.959Z,1018.57
2022-08-24T12:21:15.543Z,1018.57
2022-08-24T12:22:19.993Z,1018.55
2022-08-24T12:23:24.406Z,1018.57
2022-08-24T12:24:28.927Z,1018.54
2022-08-24T12:25:33.427Z,1018.54
2022-08-24T12:26:37.868Z,1018.60
2022-08-24T12:27:42.380Z,1018.53
2022-08-24T12:28:48.486Z,1018.55
2022-08-24T12:29:51.381Z,1018.55
2022-08-24T12:30:55.903Z,1018.52
2022-08-24T12:32:00.383Z,1018.54
2022-08-24T12:33:04.916Z,1018.57
2022-08-24T12:34:09.815Z,1018.59
2022-08-24T12:35:13.866Z,1018.58
2022-08-24T12:36:18.355Z,1018.52
2022-08-24T12:37:22.860Z,1018.53
2022-08-24T12:38:27.391Z,1018.51
2022-08-24T12:39:31.892Z,1018.53
2022-08-24T12:40:36.418Z,1018.52
2022-08-24T12:41:40.852Z,1018.47
2022-08-24T12:42:48.704Z,1018.46
2022-08-24T12:43:49.882Z,1018.43
2022-08-24T12:44:54.410Z,1018.40
2022-08-24T12:45:58.939Z,1018.39
2022-08-24T12:47:03.472Z,1018.38
2022-08-24T12:48:07.959Z,1018.38
2022-08-24T12:49:12.485Z,1018.37
2022-08-24T12:50:16.976Z,1018.38
2022-08-24T12:51:21.487Z,1018.41
2022-08-24T12:52:25.911Z,1018.41
2022-08-24T12:53:30.507Z,1018.41
2022-08-24T12:54:35.035Z,1018.40
2022-08-24T12:55:41.100Z,1018.41
2022-08-24T12:56:44.094Z,1018.44
2022-08-24T12:57:53.772Z,1018.47
2022-08-24T12:58:54.645Z,1018.56
2022-08-24T12:59:57.530Z,1018.56